sensor_id;sensor_type;location;lat;lon;timestamp;temperature;humidity
20946;DHT22;10632;51.276;7.116;2023-05-14T00:00:45;12.10;99.90
20946;DHT22;10632;51.276;7.116;2023-05-14T00:03:12;12.10;99.90
20946;DHT22;10632;51.276;7.116;2023-05-14T00:05:39;12.10;99.90
20946;DHT22;10632;51.276;7.116;2023-05-14T00:08:07;12.20;99.90
20946;DHT22;10632;51.276;7.116;2023-05-14T00:10:35;12.20;99.90
20946;DHT22;10632;51.276;7.116;2023-05-14T00:13:01;12.30;99.90
20946;DHT22;10632;51.276;7.116;2023-05-14T00:15:31;12.30;99.90
20946;DHT22;10632;51.276;7.116;2023-05-14T00:18:00;12.30;99.90
20946;DHT22;10632;51.276;7.116;2023-05-14T00:20:32;12.20;99.90
20946;DHT22;10632;51.276;7.116;2023-05-14T00:22:59;12.20;99.90
20946;DHT22;10632;51.276;7.116;2023-05-14T00:25:27;12.20;99.90
20946;DHT22;10632;51.276;7.116;2023-05-14T00:27:54;12.10;99.90
20946;DHT22;10632;51.276;7.116;2023-05-14T00:30:21;12.10;99.90
20946;DHT22;10632;51.276;7.116;2023-05-14T00:32:48;12.10;99.90
20946;DHT22;10632;51.276;7.116;2023-05-14T00:35:15;12.10;99.90
20946;DHT22;10632;51.276;7.116;2023-05-14T00:37:42;12.10;99.90
20946;DHT22;10632;51.276;7.116;2023-05-14T00:40:09;12.10;99.90
20946;DHT22;10632;51.276;7.116;2023-05-14T00:46:01;12.20;99.90
20946;DHT22;10632;51.276;7.116;2023-05-14T00:48:28;12.20;99.90
20946;DHT22;10632;51.276;7.116;2023-05-14T00:50:55;12.20;99.90
20946;DHT22;10632;51.276;7.116;2023-05-14T00:53:22;12.20;99.90
20946;DHT22;10632;51.276;7.116;2023-05-14T00:55:50;12.20;99.90
20946;DHT22;10632;51.276;7.116;2023-05-14T00:58:18;12.10;99.90
20946;DHT22;10632;51.276;7.116;2023-05-14T01:00:45;12.10;99.90
20946;DHT22;10632;51.276;7.116;2023-05-14T01:03:13;12.10;99.90
20946;DHT22;10632;51.276;7.116;2023-05-14T01:05:46;12.10;99.90
20946;DHT22;10632;51.276;7.116;2023-05-14T01:08:26;12.10;99.90
20946;DHT22;10632;51.276;7.116;2023-05-14T01:11:02;12.00;99.90
20946;DHT22;10632;51.276;7.116;2023-05-14T01:13:35;12.10;99.90
20946;DHT22;10632;51.276;7.116;2023-05-14T01:16:06;12.00;99.90
20946;DHT22;10632;51.276;7.116;2023-05-14T01:18:39;12.00;99.90
20946;DHT22;10632;51.276;7.116;2023-05-14T01:21:23;12.00;99.90
20946;DHT22;10632;51.276;7.116;2023-05-14T01:23:50;12.00;99.90
20946;DHT22;10632;51.276;7.116;2023-05-14T01:26:17;12.00;99.90
20946;DHT22;10632;51.276;7.116;2023-05-14T01:28:46;12.00;99.90
20946;DHT22;10632;51.276;7.116;2023-05-14T01:31:17;12.00;99.90
20946;DHT22;10632;51.276;7.116;2023-05-14T01:33:50;12.00;99.90
20946;DHT22;10632;51.276;7.116;2023-05-14T01:36:18;12.00;99.90
20946;DHT22;10632;51.276;7.116;2023-05-14T01:38:47;12.00;99.90
20946;DHT22;10632;51.276;7.116;2023-05-14T01:41:17;12.00;99.90
20946;DHT22;10632;51.276;7.116;2023-05-14T01:43:58;12.00;99.90
20946;DHT22;10632;51.276;7.116;2023-05-14T01:46:33;12.00;99.90
20946;DHT22;10632;51.276;7.116;2023-05-14T01:49:03;12.00;99.90
20946;DHT22;10632;51.276;7.116;2023-05-14T01:51:33;12.00;99.90
20946;DHT22;10632;51.276;7.116;2023-05-14T01:54:12;12.00;99.90
20946;DHT22;10632;51.276;7.116;2023-05-14T01:56:40;12.00;99.90
20946;DHT22;10632;51.276;7.116;2023-05-14T01:59:07;12.00;99.90
20946;DHT22;10632;51.276;7.116;2023-05-14T02:01:37;12.00;99.90
20946;DHT22;10632;51.276;7.116;2023-05-14T02:04:10;12.00;99.90
20946;DHT22;10632;51.276;7.116;2023-05-14T02:06:37;12.00;99.90
20946;DHT22;10632;51.276;7.116;2023-05-14T02:09:32;12.00;99.90
20946;DHT22;10632;51.276;7.116;2023-05-14T02:12:04;12.10;99.90
20946;DHT22;10632;51.276;7.116;2023-05-14T02:14:31;12.00;99.90
20946;DHT22;10632;51.276;7.116;2023-05-14T02:16:58;12.00;99.90
20946;DHT22;10632;51.276;7.116;2023-05-14T02:19:25;11.80;99.90
20946;DHT22;10632;51.276;7.116;2023-05-14T02:22:00;11.70;99.90
20946;DHT22;10632;51.276;7.116;2023-05-14T02:24:26;11.50;99.90
20946;DHT22;10632;51.276;7.116;2023-05-14T02:26:55;11.40;99.90
20946;DHT22;10632;51.276;7.116;2023-05-14T02:29:39;11.30;99.90
20946;DHT22;10632;51.276;7.116;2023-05-14T02:32:09;11.30;99.90
20946;DHT22;10632;51.276;7.116;2023-05-14T02:34:48;11.20;99.90
20946;DHT22;10632;51.276;7.116;2023-05-14T02:37:27;11.20;99.90
20946;DHT22;10632;51.276;7.116;2023-05-14T02:40:00;11.30;99.90
20946;DHT22;10632;51.276;7.116;2023-05-14T02:42:30;11.30;99.90
20946;DHT22;10632;51.276;7.116;2023-05-14T02:45:01;11.40;99.90
20946;DHT22;10632;51.276;7.116;2023-05-14T02:47:31;11.40;99.90
20946;DHT22;10632;51.276;7.116;2023-05-14T02:50:00;11.50;99.90
20946;DHT22;10632;51.276;7.116;2023-05-14T02:52:34;11.60;99.90
20946;DHT22;10632;51.276;7.116;2023-05-14T02:55:06;11.60;99.90
20946;DHT22;10632;51.276;7.116;2023-05-14T02:57:41;11.60;99.90
20946;DHT22;10632;51.276;7.116;2023-05-14T03:00:20;11.70;99.90
20946;DHT22;10632;51.276;7.116;2023-05-14T03:03:00;11.70;99.90
20946;DHT22;10632;51.276;7.116;2023-05-14T03:05:30;11.70;99.90
20946;DHT22;10632;51.276;7.116;2023-05-14T03:07:58;11.70;99.90
20946;DHT22;10632;51.276;7.116;2023-05-14T03:10:28;11.70;99.90
20946;DHT22;10632;51.276;7.116;2023-05-14T03:13:07;11.60;99.90
20946;DHT22;10632;51.276;7.116;2023-05-14T03:15:41;11.50;99.90
20946;DHT22;10632;51.276;7.116;2023-05-14T03:18:14;11.40;99.90
20946;DHT22;10632;51.276;7.116;2023-05-14T03:20:41;11.30;99.90
20946;DHT22;10632;51.276;7.116;2023-05-14T03:23:16;11.20;99.90
20946;DHT22;10632;51.276;7.116;2023-05-14T03:25:52;11.00;99.90
20946;DHT22;10632;51.276;7.116;2023-05-14T03:28:26;10.90;99.90
20946;DHT22;10632;51.276;7.116;2023-05-14T03:30:59;10.80;99.90
20946;DHT22;10632;51.276;7.116;2023-05-14T03:33:34;10.70;99.90
20946;DHT22;10632;51.276;7.116;2023-05-14T03:36:03;10.60;99.90
20946;DHT22;10632;51.276;7.116;2023-05-14T03:38:30;10.50;99.90
20946;DHT22;10632;51.276;7.116;2023-05-14T03:41:01;10.50;99.90
20946;DHT22;10632;51.276;7.116;2023-05-14T03:43:45;10.40;99.90
20946;DHT22;10632;51.276;7.116;2023-05-14T03:46:18;10.40;99.90
20946;DHT22;10632;51.276;7.116;2023-05-14T03:48:45;10.40;99.90
20946;DHT22;10632;51.276;7.116;2023-05-14T03:51:15;10.40;99.90
20946;DHT22;10632;51.276;7.116;2023-05-14T03:53:42;10.40;99.90
20946;DHT22;10632;51.276;7.116;2023-05-14T03:56:10;10.50;99.90
20946;DHT22;10632;51.276;7.116;2023-05-14T03:58:41;10.50;99.90
20946;DHT22;10632;51.276;7.116;2023-05-14T04:01:10;10.60;99.90
20946;DHT22;10632;51.276;7.116;2023-05-14T04:03:37;10.60;99.90
20946;DHT22;10632;51.276;7.116;2023-05-14T04:06:05;10.70;99.90
20946;DHT22;10632;51.276;7.116;2023-05-14T04:08:38;10.80;99.90
20946;DHT22;10632;51.276;7.116;2023-05-14T04:11:05;10.90;99.90
20946;DHT22;10632;51.276;7.116;2023-05-14T04:13:33;10.90;99.90
20946;DHT22;10632;51.276;7.116;2023-05-14T04:16:08;10.90;99.90
20946;DHT22;10632;51.276;7.116;2023-05-14T04:18:36;10.90;99.90
20946;DHT22;10632;51.276;7.116;2023-05-14T04:21:04;10.90;99.90
20946;DHT22;10632;51.276;7.116;2023-05-14T04:23:36;11.00;99.90
20946;DHT22;10632;51.276;7.116;2023-05-14T04:26:04;11.00;99.90
20946;DHT22;10632;51.276;7.116;2023-05-14T04:28:51;11.10;99.90
20946;DHT22;10632;51.276;7.116;2023-05-14T04:31:32;11.10;99.90
20946;DHT22;10632;51.276;7.116;2023-05-14T04:34:05;11.10;99.90
20946;DHT22;10632;51.276;7.116;2023-05-14T04:36:33;11.20;99.90
20946;DHT22;10632;51.276;7.116;2023-05-14T04:39:00;11.10;99.90
20946;DHT22;10632;51.276;7.116;2023-05-14T04:41:34;11.10;99.90
20946;DHT22;10632;51.276;7.116;2023-05-14T04:44:02;11.10;99.90
20946;DHT22;10632;51.276;7.116;2023-05-14T04:46:35;11.10;99.90
20946;DHT22;10632;51.276;7.116;2023-05-14T04:49:03;11.10;99.90
20946;DHT22;10632;51.276;7.116;2023-05-14T04:51:30;11.00;99.90
20946;DHT22;10632;51.276;7.116;2023-05-14T04:53:59;10.90;99.90
20946;DHT22;10632;51.276;7.116;2023-05-14T04:56:28;10.80;99.90
20946;DHT22;10632;51.276;7.116;2023-05-14T04:58:55;10.80;99.90
20946;DHT22;10632;51.276;7.116;2023-05-14T05:01:31;10.70;99.90
20946;DHT22;10632;51.276;7.116;2023-05-14T05:04:13;10.70;99.90
20946;DHT22;10632;51.276;7.116;2023-05-14T05:06:55;10.80;99.90
20946;DHT22;10632;51.276;7.116;2023-05-14T05:09:21;10.90;99.90
20946;DHT22;10632;51.276;7.116;2023-05-14T05:11:48;11.10;99.90
20946;DHT22;10632;51.276;7.116;2023-05-14T05:14:18;11.20;99.90
20946;DHT22;10632;51.276;7.116;2023-05-14T05:17:09;11.20;99.90
20946;DHT22;10632;51.276;7.116;2023-05-14T05:19:38;11.20;99.90
20946;DHT22;10632;51.276;7.116;2023-05-14T05:22:15;11.10;99.90
20946;DHT22;10632;51.276;7.116;2023-05-14T05:24:47;11.10;99.90
20946;DHT22;10632;51.276;7.116;2023-05-14T05:27:19;11.10;99.90
20946;DHT22;10632;51.276;7.116;2023-05-14T05:29:49;11.10;99.90
20946;DHT22;10632;51.276;7.116;2023-05-14T05:32:18;11.10;99.90
20946;DHT22;10632;51.276;7.116;2023-05-14T05:35:00;11.10;99.90
20946;DHT22;10632;51.276;7.116;2023-05-14T05:37:30;11.20;99.90
20946;DHT22;10632;51.276;7.116;2023-05-14T05:39:59;11.30;99.90
20946;DHT22;10632;51.276;7.116;2023-05-14T05:42:39;11.40;99.90
20946;DHT22;10632;51.276;7.116;2023-05-14T05:45:15;11.40;99.90
20946;DHT22;10632;51.276;7.116;2023-05-14T05:47:43;11.50;99.90
20946;DHT22;10632;51.276;7.116;2023-05-14T05:50:14;11.60;99.90
20946;DHT22;10632;51.276;7.116;2023-05-14T05:52:41;11.60;99.90
20946;DHT22;10632;51.276;7.116;2023-05-14T05:55:11;11.70;99.90
20946;DHT22;10632;51.276;7.116;2023-05-14T05:57:38;11.70;99.90
20946;DHT22;10632;51.276;7.116;2023-05-14T06:00:12;11.80;99.90
20946;DHT22;10632;51.276;7.116;2023-05-14T06:02:44;11.80;99.90
20946;DHT22;10632;51.276;7.116;2023-05-14T06:05:16;11.80;99.90
20946;DHT22;10632;51.276;7.116;2023-05-14T06:07:45;11.80;99.90
20946;DHT22;10632;51.276;7.116;2023-05-14T06:10:16;11.80;99.90
20946;DHT22;10632;51.276;7.116;2023-05-14T06:12:43;11.90;99.90
20946;DHT22;10632;51.276;7.116;2023-05-14T06:15:11;11.90;99.90
20946;DHT22;10632;51.276;7.116;2023-05-14T06:17:46;11.90;99.90
20946;DHT22;10632;51.276;7.116;2023-05-14T06:20:20;12.00;99.90
20946;DHT22;10632;51.276;7.116;2023-05-14T06:22:47;12.10;99.90
20946;DHT22;10632;51.276;7.116;2023-05-14T06:25:18;12.20;99.90
20946;DHT22;10632;51.276;7.116;2023-05-14T06:27:46;12.30;99.90
20946;DHT22;10632;51.276;7.116;2023-05-14T06:30:18;12.40;99.90
20946;DHT22;10632;51.276;7.116;2023-05-14T06:32:46;12.40;99.90
20946;DHT22;10632;51.276;7.116;2023-05-14T06:35:23;12.50;99.90
20946;DHT22;10632;51.276;7.116;2023-05-14T06:37:50;12.60;99.90
20946;DHT22;10632;51.276;7.116;2023-05-14T06:40:19;12.70;99.90
20946;DHT22;10632;51.276;7.116;2023-05-14T06:42:46;12.80;99.90
20946;DHT22;10632;51.276;7.116;2023-05-14T06:45:15;12.90;99.90
20946;DHT22;10632;51.276;7.116;2023-05-14T06:47:44;13.10;99.90
20946;DHT22;10632;51.276;7.116;2023-05-14T06:50:24;13.20;99.90
20946;DHT22;10632;51.276;7.116;2023-05-14T06:52:51;13.30;99.90
20946;DHT22;10632;51.276;7.116;2023-05-14T06:55:18;13.50;99.90
20946;DHT22;10632;51.276;7.116;2023-05-14T06:57:48;13.60;99.90
20946;DHT22;10632;51.276;7.116;2023-05-14T07:00:21;13.70;99.90
20946;DHT22;10632;51.276;7.116;2023-05-14T07:02:51;13.90;99.90
20946;DHT22;10632;51.276;7.116;2023-05-14T07:05:20;13.90;99.90
20946;DHT22;10632;51.276;7.116;2023-05-14T07:07:49;14.00;99.90
20946;DHT22;10632;51.276;7.116;2023-05-14T07:10:17;14.10;99.90
20946;DHT22;10632;51.276;7.116;2023-05-14T07:12:47;14.20;99.90
20946;DHT22;10632;51.276;7.116;2023-05-14T07:15:16;14.40;99.90
20946;DHT22;10632;51.276;7.116;2023-05-14T07:17:44;14.50;99.90
20946;DHT22;10632;51.276;7.116;2023-05-14T07:20:12;14.70;99.90
20946;DHT22;10632;51.276;7.116;2023-05-14T07:22:46;14.70;99.90
20946;DHT22;10632;51.276;7.116;2023-05-14T07:25:13;14.90;99.90
20946;DHT22;10632;51.276;7.116;2023-05-14T07:27:40;15.00;99.90
20946;DHT22;10632;51.276;7.116;2023-05-14T07:30:10;15.10;99.90
20946;DHT22;10632;51.276;7.116;2023-05-14T07:32:39;15.30;99.90
20946;DHT22;10632;51.276;7.116;2023-05-14T07:35:08;15.40;99.90
20946;DHT22;10632;51.276;7.116;2023-05-14T07:37:36;15.50;99.90
20946;DHT22;10632;51.276;7.116;2023-05-14T07:40:06;15.60;99.90
20946;DHT22;10632;51.276;7.116;2023-05-14T07:42:35;15.70;99.90
20946;DHT22;10632;51.276;7.116;2023-05-14T07:45:02;15.80;99.90
20946;DHT22;10632;51.276;7.116;2023-05-14T07:47:29;15.90;99.90
20946;DHT22;10632;51.276;7.116;2023-05-14T07:49:57;16.00;99.90
20946;DHT22;10632;51.276;7.116;2023-05-14T07:52:26;16.10;99.90
20946;DHT22;10632;51.276;7.116;2023-05-14T07:54:53;16.10;99.90
20946;DHT22;10632;51.276;7.116;2023-05-14T07:57:28;16.20;99.90
20946;DHT22;10632;51.276;7.116;2023-05-14T07:59:56;16.30;99.90
20946;DHT22;10632;51.276;7.116;2023-05-14T08:02:23;16.30;99.90
20946;DHT22;10632;51.276;7.116;2023-05-14T08:04:50;16.40;99.90
20946;DHT22;10632;51.276;7.116;2023-05-14T08:07:17;16.50;99.90
20946;DHT22;10632;51.276;7.116;2023-05-14T08:09:45;16.60;99.90
20946;DHT22;10632;51.276;7.116;2023-05-14T08:12:17;16.70;99.90
20946;DHT22;10632;51.276;7.116;2023-05-14T08:14:45;16.80;99.90
20946;DHT22;10632;51.276;7.116;2023-05-14T08:17:12;16.80;99.90
20946;DHT22;10632;51.276;7.116;2023-05-14T08:19:39;16.90;99.90
20946;DHT22;10632;51.276;7.116;2023-05-14T08:22:09;16.90;99.90
20946;DHT22;10632;51.276;7.116;2023-05-14T08:24:39;17.00;99.90
20946;DHT22;10632;51.276;7.116;2023-05-14T08:27:07;17.00;99.90
20946;DHT22;10632;51.276;7.116;2023-05-14T08:29:34;17.10;99.90
20946;DHT22;10632;51.276;7.116;2023-05-14T08:32:03;17.10;99.90
20946;DHT22;10632;51.276;7.116;2023-05-14T08:34:30;17.30;99.90
20946;DHT22;10632;51.276;7.116;2023-05-14T08:37:01;17.30;99.90
20946;DHT22;10632;51.276;7.116;2023-05-14T08:39:39;17.40;99.90
20946;DHT22;10632;51.276;7.116;2023-05-14T08:42:06;17.40;99.90
20946;DHT22;10632;51.276;7.116;2023-05-14T08:44:41;17.50;99.90
20946;DHT22;10632;51.276;7.116;2023-05-14T08:47:14;17.60;99.90
20946;DHT22;10632;51.276;7.116;2023-05-14T08:49:45;17.70;99.90
20946;DHT22;10632;51.276;7.116;2023-05-14T08:52:12;17.80;99.90
20946;DHT22;10632;51.276;7.116;2023-05-14T08:54:43;17.80;99.90
20946;DHT22;10632;51.276;7.116;2023-05-14T08:57:12;17.90;99.90
20946;DHT22;10632;51.276;7.116;2023-05-14T08:59:48;17.90;99.90
20946;DHT22;10632;51.276;7.116;2023-05-14T09:02:19;17.90;99.90
20946;DHT22;10632;51.276;7.116;2023-05-14T09:04:53;18.00;99.90
20946;DHT22;10632;51.276;7.116;2023-05-14T09:07:20;18.00;99.90
20946;DHT22;10632;51.276;7.116;2023-05-14T09:09:47;18.00;99.90
20946;DHT22;10632;51.276;7.116;2023-05-14T09:12:14;18.00;99.90
20946;DHT22;10632;51.276;7.116;2023-05-14T09:14:42;18.00;99.90
20946;DHT22;10632;51.276;7.116;2023-05-14T09:17:09;18.10;99.90
20946;DHT22;10632;51.276;7.116;2023-05-14T09:19:38;18.10;99.90
20946;DHT22;10632;51.276;7.116;2023-05-14T09:22:12;18.20;99.90
20946;DHT22;10632;51.276;7.116;2023-05-14T09:24:39;18.30;99.90
20946;DHT22;10632;51.276;7.116;2023-05-14T09:27:08;18.30;99.90
20946;DHT22;10632;51.276;7.116;2023-05-14T09:29:35;18.40;99.90
20946;DHT22;10632;51.276;7.116;2023-05-14T09:32:02;18.40;99.50
20946;DHT22;10632;51.276;7.116;2023-05-14T09:34:31;18.50;99.30
20946;DHT22;10632;51.276;7.116;2023-05-14T09:37:03;18.50;98.30
20946;DHT22;10632;51.276;7.116;2023-05-14T09:39:35;18.50;97.40
20946;DHT22;10632;51.276;7.116;2023-05-14T09:42:03;18.60;97.20
20946;DHT22;10632;51.276;7.116;2023-05-14T09:44:37;18.60;97.60
20946;DHT22;10632;51.276;7.116;2023-05-14T09:47:04;18.70;97.70
20946;DHT22;10632;51.276;7.116;2023-05-14T09:49:47;18.60;97.10
20946;DHT22;10632;51.276;7.116;2023-05-14T09:52:21;18.70;96.80
20946;DHT22;10632;51.276;7.116;2023-05-14T09:54:51;18.70;97.20
20946;DHT22;10632;51.276;7.116;2023-05-14T09:57:20;18.70;96.50
20946;DHT22;10632;51.276;7.116;2023-05-14T09:59:51;18.70;96.50
20946;DHT22;10632;51.276;7.116;2023-05-14T10:02:22;18.80;96.60
20946;DHT22;10632;51.276;7.116;2023-05-14T10:04:52;18.90;96.80
20946;DHT22;10632;51.276;7.116;2023-05-14T10:07:28;19.10;96.90
20946;DHT22;10632;51.276;7.116;2023-05-14T10:09:58;19.30;98.00
20946;DHT22;10632;51.276;7.116;2023-05-14T10:12:29;19.40;97.90
20946;DHT22;10632;51.276;7.116;2023-05-14T10:15:01;19.60;96.90
20946;DHT22;10632;51.276;7.116;2023-05-14T10:17:31;19.60;96.00
20946;DHT22;10632;51.276;7.116;2023-05-14T10:20:02;19.60;96.40
20946;DHT22;10632;51.276;7.116;2023-05-14T10:22:35;19.60;96.30
20946;DHT22;10632;51.276;7.116;2023-05-14T10:25:02;19.60;96.40
20946;DHT22;10632;51.276;7.116;2023-05-14T10:27:33;19.70;96.50
20946;DHT22;10632;51.276;7.116;2023-05-14T10:30:05;19.80;97.20
20946;DHT22;10632;51.276;7.116;2023-05-14T10:32:36;19.90;97.20
20946;DHT22;10632;51.276;7.116;2023-05-14T10:35:15;20.00;96.90
20946;DHT22;10632;51.276;7.116;2023-05-14T10:37:44;20.00;96.00
20946;DHT22;10632;51.276;7.116;2023-05-14T10:40:12;19.90;95.40
20946;DHT22;10632;51.276;7.116;2023-05-14T10:42:39;19.90;96.10
20946;DHT22;10632;51.276;7.116;2023-05-14T10:45:09;20.00;96.50
20946;DHT22;10632;51.276;7.116;2023-05-14T10:47:41;20.10;96.70
20946;DHT22;10632;51.276;7.116;2023-05-14T10:50:12;20.30;97.10
20946;DHT22;10632;51.276;7.116;2023-05-14T10:52:40;20.70;96.70
20946;DHT22;10632;51.276;7.116;2023-05-14T10:55:12;20.90;95.70
20946;DHT22;10632;51.276;7.116;2023-05-14T10:57:41;20.90;94.70
20946;DHT22;10632;51.276;7.116;2023-05-14T11:00:09;20.70;94.70
20946;DHT22;10632;51.276;7.116;2023-05-14T11:02:38;20.40;95.00
20946;DHT22;10632;51.276;7.116;2023-05-14T11:05:08;20.10;94.20
20946;DHT22;10632;51.276;7.116;2023-05-14T11:07:38;19.90;94.50
20946;DHT22;10632;51.276;7.116;2023-05-14T11:10:09;19.70;94.70
20946;DHT22;10632;51.276;7.116;2023-05-14T11:12:38;19.70;94.30
20946;DHT22;10632;51.276;7.116;2023-05-14T11:15:07;19.70;95.00
20946;DHT22;10632;51.276;7.116;2023-05-14T11:17:35;19.90;94.70
20946;DHT22;10632;51.276;7.116;2023-05-14T11:20:03;20.10;95.00
20946;DHT22;10632;51.276;7.116;2023-05-14T11:22:31;20.30;93.20
20946;DHT22;10632;51.276;7.116;2023-05-14T11:24:58;20.50;93.30
20946;DHT22;10632;51.276;7.116;2023-05-14T11:27:26;20.60;92.70
20946;DHT22;10632;51.276;7.116;2023-05-14T11:29:53;20.80;92.40
20946;DHT22;10632;51.276;7.116;2023-05-14T11:32:25;21.00;92.60
20946;DHT22;10632;51.276;7.116;2023-05-14T11:34:52;21.10;92.00
20946;DHT22;10632;51.276;7.116;2023-05-14T11:37:20;21.30;92.00
20946;DHT22;10632;51.276;7.116;2023-05-14T11:39:48;21.40;92.60
20946;DHT22;10632;51.276;7.116;2023-05-14T11:42:16;21.50;91.50
20946;DHT22;10632;51.276;7.116;2023-05-14T11:44:46;21.60;91.60
20946;DHT22;10632;51.276;7.116;2023-05-14T11:47:13;21.80;91.80
20946;DHT22;10632;51.276;7.116;2023-05-14T11:49:40;22.00;90.80
20946;DHT22;10632;51.276;7.116;2023-05-14T11:52:08;22.00;91.70
20946;DHT22;10632;51.276;7.116;2023-05-14T11:54:36;22.00;90.30
20946;DHT22;10632;51.276;7.116;2023-05-14T11:57:07;21.90;91.00
20946;DHT22;10632;51.276;7.116;2023-05-14T11:59:38;21.80;91.10
20946;DHT22;10632;51.276;7.116;2023-05-14T12:02:09;21.80;90.30
20946;DHT22;10632;51.276;7.116;2023-05-14T12:04:37;21.70;90.70
20946;DHT22;10632;51.276;7.116;2023-05-14T12:07:07;21.70;91.40
20946;DHT22;10632;51.276;7.116;2023-05-14T12:09:36;21.60;87.90
20946;DHT22;10632;51.276;7.116;2023-05-14T12:12:07;21.50;86.90
20946;DHT22;10632;51.276;7.116;2023-05-14T12:14:38;21.30;87.60
20946;DHT22;10632;51.276;7.116;2023-05-14T12:17:12;21.20;87.80
20946;DHT22;10632;51.276;7.116;2023-05-14T12:19:40;21.20;90.20
20946;DHT22;10632;51.276;7.116;2023-05-14T12:22:12;21.30;90.60
20946;DHT22;10632;51.276;7.116;2023-05-14T12:24:40;21.50;90.60
20946;DHT22;10632;51.276;7.116;2023-05-14T12:27:08;21.70;89.90
20946;DHT22;10632;51.276;7.116;2023-05-14T12:29:35;21.70;90.00
20946;DHT22;10632;51.276;7.116;2023-05-14T12:32:07;21.80;89.90
20946;DHT22;10632;51.276;7.116;2023-05-14T12:34:37;21.80;88.30
20946;DHT22;10632;51.276;7.116;2023-05-14T12:37:04;21.80;89.10
20946;DHT22;10632;51.276;7.116;2023-05-14T12:39:33;21.80;90.00
20946;DHT22;10632;51.276;7.116;2023-05-14T12:42:00;21.90;89.90
20946;DHT22;10632;51.276;7.116;2023-05-14T12:44:27;21.90;87.20
20946;DHT22;10632;51.276;7.116;2023-05-14T12:46:54;21.90;87.30
20946;DHT22;10632;51.276;7.116;2023-05-14T12:49:21;22.00;89.70
20946;DHT22;10632;51.276;7.116;2023-05-14T12:51:50;22.00;89.20
20946;DHT22;10632;51.276;7.116;2023-05-14T12:54:16;22.00;89.60
20946;DHT22;10632;51.276;7.116;2023-05-14T12:56:44;22.00;87.40
20946;DHT22;10632;51.276;7.116;2023-05-14T12:59:11;22.00;89.00
20946;DHT22;10632;51.276;7.116;2023-05-14T13:01:39;21.90;89.50
20946;DHT22;10632;51.276;7.116;2023-05-14T13:04:07;21.80;90.30
20946;DHT22;10632;51.276;7.116;2023-05-14T13:06:37;21.70;90.50
20946;DHT22;10632;51.276;7.116;2023-05-14T13:09:05;21.70;89.00
20946;DHT22;10632;51.276;7.116;2023-05-14T13:11:33;21.60;89.70
20946;DHT22;10632;51.276;7.116;2023-05-14T13:14:00;21.60;90.90
20946;DHT22;10632;51.276;7.116;2023-05-14T13:16:28;21.60;90.00
20946;DHT22;10632;51.276;7.116;2023-05-14T13:18:55;21.40;90.80
20946;DHT22;10632;51.276;7.116;2023-05-14T13:21:22;21.40;91.50
20946;DHT22;10632;51.276;7.116;2023-05-14T13:23:49;21.50;91.50
20946;DHT22;10632;51.276;7.116;2023-05-14T13:26:17;21.50;91.20
20946;DHT22;10632;51.276;7.116;2023-05-14T13:28:44;21.50;90.80
20946;DHT22;10632;51.276;7.116;2023-05-14T13:31:12;21.40;91.60
20946;DHT22;10632;51.276;7.116;2023-05-14T13:33:41;21.30;90.90
20946;DHT22;10632;51.276;7.116;2023-05-14T13:36:09;21.10;91.60
20946;DHT22;10632;51.276;7.116;2023-05-14T13:38:36;21.10;91.00
20946;DHT22;10632;51.276;7.116;2023-05-14T13:41:04;21.00;91.50
20946;DHT22;10632;51.276;7.116;2023-05-14T13:43:33;21.00;91.30
20946;DHT22;10632;51.276;7.116;2023-05-14T13:46:00;21.00;91.60
20946;DHT22;10632;51.276;7.116;2023-05-14T13:48:28;21.00;91.50
20946;DHT22;10632;51.276;7.116;2023-05-14T13:50:55;21.00;91.10
20946;DHT22;10632;51.276;7.116;2023-05-14T13:53:23;21.00;91.30
20946;DHT22;10632;51.276;7.116;2023-05-14T13:55:50;20.90;90.70
20946;DHT22;10632;51.276;7.116;2023-05-14T13:58:21;20.80;91.40
20946;DHT22;10632;51.276;7.116;2023-05-14T14:00:49;20.80;90.30
20946;DHT22;10632;51.276;7.116;2023-05-14T14:03:16;20.80;90.50
20946;DHT22;10632;51.276;7.116;2023-05-14T14:05:43;20.90;90.40
20946;DHT22;10632;51.276;7.116;2023-05-14T14:08:10;20.90;90.40
20946;DHT22;10632;51.276;7.116;2023-05-14T14:10:37;20.90;91.60
20946;DHT22;10632;51.276;7.116;2023-05-14T14:13:05;21.00;92.30
20946;DHT22;10632;51.276;7.116;2023-05-14T14:15:32;21.00;92.20
20946;DHT22;10632;51.276;7.116;2023-05-14T14:18:01;21.00;92.60
20946;DHT22;10632;51.276;7.116;2023-05-14T14:20:29;21.00;91.80
20946;DHT22;10632;51.276;7.116;2023-05-14T14:22:58;21.00;91.70
20946;DHT22;10632;51.276;7.116;2023-05-14T14:25:25;21.00;91.90
20946;DHT22;10632;51.276;7.116;2023-05-14T14:27:52;20.90;92.30
20946;DHT22;10632;51.276;7.116;2023-05-14T14:30:19;20.90;92.60
20946;DHT22;10632;51.276;7.116;2023-05-14T14:32:46;20.90;92.30
20946;DHT22;10632;51.276;7.116;2023-05-14T14:35:16;20.80;91.50
20946;DHT22;10632;51.276;7.116;2023-05-14T14:37:43;20.70;92.00
20946;DHT22;10632;51.276;7.116;2023-05-14T14:40:14;20.70;92.60
20946;DHT22;10632;51.276;7.116;2023-05-14T14:42:41;20.70;92.80
20946;DHT22;10632;51.276;7.116;2023-05-14T14:45:09;20.70;92.40
20946;DHT22;10632;51.276;7.116;2023-05-14T14:47:36;20.70;91.50
20946;DHT22;10632;51.276;7.116;2023-05-14T14:50:06;20.70;91.40
20946;DHT22;10632;51.276;7.116;2023-05-14T14:52:34;20.70;91.40
20946;DHT22;10632;51.276;7.116;2023-05-14T14:55:01;20.60;91.30
20946;DHT22;10632;51.276;7.116;2023-05-14T14:57:28;20.60;91.10
20946;DHT22;10632;51.276;7.116;2023-05-14T14:59:55;20.60;91.10
20946;DHT22;10632;51.276;7.116;2023-05-14T15:02:22;20.50;91.70
20946;DHT22;10632;51.276;7.116;2023-05-14T15:04:49;20.50;93.20
20946;DHT22;10632;51.276;7.116;2023-05-14T15:07:16;20.60;93.30
20946;DHT22;10632;51.276;7.116;2023-05-14T15:09:46;20.50;94.00
20946;DHT22;10632;51.276;7.116;2023-05-14T15:12:13;20.50;94.30
20946;DHT22;10632;51.276;7.116;2023-05-14T15:14:41;20.50;92.10
20946;DHT22;10632;51.276;7.116;2023-05-14T15:17:08;20.50;92.50
20946;DHT22;10632;51.276;7.116;2023-05-14T15:19:35;20.50;91.80
20946;DHT22;10632;51.276;7.116;2023-05-14T15:22:05;20.50;91.80
20946;DHT22;10632;51.276;7.116;2023-05-14T15:24:32;20.50;92.20
20946;DHT22;10632;51.276;7.116;2023-05-14T15:27:00;20.60;92.00
20946;DHT22;10632;51.276;7.116;2023-05-14T15:29:27;20.60;92.70
20946;DHT22;10632;51.276;7.116;2023-05-14T15:31:54;20.60;93.20
20946;DHT22;10632;51.276;7.116;2023-05-14T15:34:21;20.60;93.50
20946;DHT22;10632;51.276;7.116;2023-05-14T15:36:48;20.60;93.70
20946;DHT22;10632;51.276;7.116;2023-05-14T15:39:15;20.60;93.90
20946;DHT22;10632;51.276;7.116;2023-05-14T15:41:42;20.50;94.60
20946;DHT22;10632;51.276;7.116;2023-05-14T15:44:10;20.40;93.90
20946;DHT22;10632;51.276;7.116;2023-05-14T15:46:37;20.40;94.40
20946;DHT22;10632;51.276;7.116;2023-05-14T15:49:04;20.40;93.50